Wednesday, April 23, 2014
22:39 UTC
  |  Log In   |  Register Free
Airport Search:

Caruthersville Memorial Airport
(M05)

Caruthersville Memorial Airport Diagram
No Airport Diagram Available

FAA data valid effective April 3, 2014 until May 29, 2014 (unless otherwise noted).

 
 
 
 
 
 
 
 
 
 
 
 
 
 

Current Aviation Weather for Caruthersville Memorial Airport (M05)

The most recent METAR observation for KBYH was updated at: 2150 UTC
METAR Summary (Translated METAR)
KBYH
232150Z 03004KT 10SM SKC 23/04 A2996 RMK LAST
KHKA
(5.7 nm SE from KBYH)
232153Z AUTO 06007KT 10SM CLR 23/02 A2996 RMK AO2 SLP145 T02280022
TAF
No TAF information found within 50 nm of KBYH
  Airport Weather Conditions for M05

Current weather conditions are
not available for M05


The nearest NOAA weather station
is at HKA, (15.6 nm SW from M05)
  
 Current Weather at HKA
73° F
Fair
Northeast winds at 8.1 mph
HKA NOAA Radar

Pressure: 29.96 in
Humidity: 26%
Wind: Northeast at 8.1 MPH (7 KT)
Dew Point: 36.0°F
Visibility: 10.00 mi


Airport Weather Forecast for M05

Translated METAR and TAF for KBYH
Translated METAR for KBYH (2239 UTC 23 April 2014)
found at http://aviationweather.gov/adds/metars/
 
METAR text: KBYH 232150Z 03004KT 10SM SKC 23/04 A2996 RMK LAST
Conditions at: KBYH (BLYTHEVILLE , AR, US) observed 2150 UTC 23 April 2014
Temperature: 23.0°C (73°F)
Dewpoint: 4.0°C (39°F) [RH = 29%]
Pressure (altimeter): 29.96 inches Hg (1014.6 mb)
Winds: from the NNE (30 degrees) at 5 MPH (4 knots; 2.1 m/s)
Visibility: 10 or more miles (16+ km)
Ceiling: at least 12,000 feet AGL
Clouds: clear skies
Weather: no significant weather observed at this time
Translated TAF for KBYH

There is no translated TAF available for this airport

Find All Airport Services Find A Hotel Find A Rental Car Find A Golf Course Find A Restaurant $100 Hamburger



FBO's on the Field
FBO Company Facility Photos Services Transportation Aviation Fuel Prices: Prices include tax
Catering Weather Repair Courtesy Rental Type 100LL JetA JetA+ MOGAS 8087
 
Add another FBO Facility Photos Catering Weather Repair Courtesy Rental Type 100LL JetA JetA+ MOGAS 8087
Services Transportation Aviation Fuel Prices: Prices include tax
There are no FBO's currently reporting fuel at M05. List your FBO now


GlobalAir.com Airport Resource Center model-print
model-print
model-print
model-print